createdAt,value
2017-09-28T00:01:10.146Z,66.40
2017-09-28T00:03:36.358Z,66.60
2017-09-28T00:06:02.596Z,66.80
2017-09-28T00:08:28.823Z,66.90
2017-09-28T00:10:55.050Z,66.20
2017-09-28T00:13:21.314Z,64.60
2017-09-28T00:15:48.322Z,65.70
2017-09-28T00:18:14.655Z,65.10
2017-09-28T00:20:40.879Z,65.00
2017-09-28T00:23:07.165Z,64.70
2017-09-28T00:25:33.379Z,65.00
2017-09-28T00:27:59.585Z,64.70
2017-09-28T00:30:25.831Z,65.40
2017-09-28T00:32:52.071Z,65.50
2017-09-28T00:35:18.379Z,64.90
2017-09-28T00:37:44.666Z,64.70
2017-09-28T00:40:10.918Z,64.80
2017-09-28T00:42:37.175Z,64.80
2017-09-28T00:45:03.442Z,64.50
2017-09-28T00:47:30.415Z,65.20
2017-09-28T00:49:56.678Z,65.20
2017-09-28T00:52:22.949Z,66.20
2017-09-28T00:54:49.284Z,65.90
2017-09-28T00:57:15.669Z,66.20
2017-09-28T00:59:41.919Z,66.50
2017-09-28T01:02:08.177Z,67.40
2017-09-28T01:04:34.507Z,68.10
2017-09-28T01:07:00.782Z,68.10
2017-09-28T01:09:27.024Z,67.80
2017-09-28T01:11:53.275Z,67.40
2017-09-28T01:14:19.501Z,66.90
2017-09-28T01:16:45.765Z,66.90
2017-09-28T01:19:11.986Z,67.00
2017-09-28T01:21:38.211Z,67.40
2017-09-28T01:24:05.203Z,67.70
2017-09-28T01:26:32.218Z,67.40
2017-09-28T01:28:58.476Z,67.30
2017-09-28T01:31:24.735Z,66.80
2017-09-28T01:33:50.983Z,67.00
2017-09-28T01:36:18.319Z,65.90
2017-09-28T01:38:45.295Z,65.70
2017-09-28T01:41:11.537Z,65.70
2017-09-28T01:43:37.784Z,65.20
2017-09-28T01:46:04.064Z,64.70
2017-09-28T01:48:30.293Z,65.00
2017-09-28T01:50:56.507Z,65.10
2017-09-28T01:53:22.848Z,65.70
2017-09-28T01:55:49.097Z,65.60
2017-09-28T01:58:15.348Z,65.10
2017-09-28T02:00:41.557Z,65.50
2017-09-28T02:03:07.819Z,65.30
2017-09-28T02:05:34.052Z,65.40
2017-09-28T02:08:00.320Z,65.80
2017-09-28T02:10:26.554Z,65.90
2017-09-28T02:12:52.773Z,66.10
2017-09-28T02:15:19.245Z,65.90
2017-09-28T02:17:45.469Z,65.70
2017-09-28T02:20:11.707Z,65.60
2017-09-28T02:22:37.935Z,65.90
2017-09-28T02:25:04.210Z,65.80
2017-09-28T02:27:30.447Z,65.50
2017-09-28T02:29:56.690Z,65.60
2017-09-28T02:32:23.029Z,65.50
2017-09-28T02:34:49.242Z,66.00
2017-09-28T02:37:16.211Z,65.60
2017-09-28T02:39:42.429Z,66.20
2017-09-28T02:42:09.372Z,65.70
2017-09-28T02:44:35.659Z,65.70
2017-09-28T02:47:01.902Z,65.40
2017-09-28T02:49:28.156Z,65.60
2017-09-28T02:51:55.134Z,66.00
2017-09-28T02:54:21.366Z,66.00
2017-09-28T02:56:47.602Z,65.70
2017-09-28T02:59:13.822Z,66.50
2017-09-28T03:01:40.057Z,66.60
2017-09-28T03:04:07.127Z,66.10
2017-09-28T03:06:33.375Z,66.10
2017-09-28T03:08:59.622Z,66.10
2017-09-28T03:11:26.586Z,65.90
2017-09-28T03:13:52.802Z,65.90
2017-09-28T03:16:19.052Z,66.30
2017-09-28T03:18:45.305Z,66.20
2017-09-28T03:21:11.539Z,65.70
2017-09-28T03:23:37.798Z,66.10
2017-09-28T03:26:04.011Z,66.40
2017-09-28T03:28:30.275Z,67.00
2017-09-28T03:30:56.521Z,66.40
2017-09-28T03:33:22.770Z,66.50
2017-09-28T03:35:49.799Z,66.70
2017-09-28T03:38:16.055Z,66.70
2017-09-28T03:40:42.293Z,66.50
2017-09-28T03:43:08.534Z,66.30
2017-09-28T03:45:34.767Z,66.10
2017-09-28T03:48:01.032Z,65.50
2017-09-28T03:50:29.121Z,65.60
2017-09-28T03:52:56.120Z,65.40
2017-09-28T03:55:22.351Z,65.30
2017-09-28T03:57:48.612Z,65.00
2017-09-28T04:00:14.873Z,65.20
2017-09-28T04:02:41.099Z,65.40
2017-09-28T04:05:07.319Z,65.60
2017-09-28T04:07:33.585Z,64.80
2017-09-28T04:09:59.839Z,64.70
2017-09-28T04:12:26.054Z,64.80
2017-09-28T04:14:52.295Z,66.50
2017-09-28T04:17:18.527Z,65.40
2017-09-28T04:19:44.746Z,65.40
2017-09-28T04:22:10.962Z,65.30
2017-09-28T04:24:37.191Z,64.80
2017-09-28T04:27:04.153Z,64.20
2017-09-28T04:29:31.144Z,64.30
2017-09-28T04:32:02.443Z,64.20
2017-09-28T04:34:28.682Z,64.20
2017-09-28T04:36:55.660Z,65.10
2017-09-28T04:39:21.892Z,65.00
2017-09-28T04:41:48.161Z,64.80
2017-09-28T04:44:14.378Z,64.80
2017-09-28T04:46:41.373Z,65.10
2017-09-28T04:49:07.666Z,65.00
2017-09-28T04:51:33.880Z,65.40
2017-09-28T04:54:00.090Z,64.70
2017-09-28T04:56:26.305Z,64.60
2017-09-28T04:58:52.542Z,64.30
2017-09-28T05:01:18.829Z,64.30
2017-09-28T05:03:45.095Z,63.90
2017-09-28T05:06:11.395Z,64.10
2017-09-28T05:08:37.667Z,63.70
2017-09-28T05:11:03.905Z,63.10
2017-09-28T05:13:30.143Z,63.40
2017-09-28T05:15:56.586Z,63.90
2017-09-28T05:18:22.886Z,63.00
2017-09-28T05:20:49.126Z,63.10
2017-09-28T05:23:15.377Z,63.00
2017-09-28T05:25:41.618Z,63.20
2017-09-28T05:28:07.831Z,63.10
2017-09-28T05:30:34.235Z,63.20
2017-09-28T05:33:00.471Z,63.50
2017-09-28T05:35:26.687Z,63.10
2017-09-28T05:37:52.903Z,62.70
2017-09-28T05:40:19.206Z,62.30
2017-09-28T05:42:45.477Z,63.10
2017-09-28T05:45:11.762Z,62.40
2017-09-28T05:47:38.046Z,62.80
2017-09-28T05:50:04.281Z,62.20
2017-09-28T05:52:30.526Z,61.70
2017-09-28T05:54:56.781Z,61.90
2017-09-28T05:57:23.027Z,62.30
2017-09-28T05:59:49.279Z,61.80
2017-09-28T06:02:15.541Z,61.90
2017-09-28T06:04:42.065Z,61.10
2017-09-28T06:07:08.641Z,61.30
2017-09-28T06:09:34.859Z,61.40
2017-09-28T06:12:01.818Z,60.70
2017-09-28T06:14:28.054Z,60.60
2017-09-28T06:16:54.301Z,60.60
2017-09-28T06:19:20.617Z,60.50
2017-09-28T06:21:46.864Z,60.20
2017-09-28T06:24:13.090Z,60.40
2017-09-28T06:26:39.311Z,60.20
2017-09-28T06:29:06.286Z,60.00
2017-09-28T06:31:32.501Z,60.00
2017-09-28T06:33:58.723Z,60.00
2017-09-28T06:36:24.947Z,60.00
2017-09-28T06:38:51.170Z,60.10
2017-09-28T06:41:17.434Z,59.80
2017-09-28T06:43:43.663Z,60.00
2017-09-28T06:46:09.927Z,59.80
2017-09-28T06:48:36.939Z,59.80
2017-09-28T06:51:03.943Z,60.10
2017-09-28T06:53:30.187Z,60.10
2017-09-28T06:55:56.411Z,59.90
2017-09-28T06:58:23.400Z,59.70
2017-09-28T07:00:49.640Z,59.70
2017-09-28T07:03:16.294Z,59.40
2017-09-28T07:05:43.326Z,59.30
2017-09-28T07:08:10.282Z,59.10
2017-09-28T07:10:36.541Z,59.10
2017-09-28T07:13:02.782Z,59.10
2017-09-28T07:15:29.766Z,58.70
2017-09-28T07:17:55.996Z,58.60
2017-09-28T07:20:22.262Z,58.90
2017-09-28T07:22:48.503Z,58.70
2017-09-28T07:25:14.784Z,58.20
2017-09-28T07:27:41.028Z,58.50
2017-09-28T07:30:07.255Z,58.50
2017-09-28T07:32:33.489Z,57.70
2017-09-28T07:34:59.751Z,57.20
2017-09-28T07:37:26.122Z,57.90
2017-09-28T07:39:52.347Z,56.80
2017-09-28T07:42:18.403Z,56.70
2017-09-28T07:44:44.463Z,55.80
2017-09-28T07:47:10.551Z,57.10
2017-09-28T07:49:37.422Z,57.10
2017-09-28T07:52:03.496Z,57.00
2017-09-28T07:54:30.283Z,56.40
2017-09-28T07:56:56.363Z,56.30
2017-09-28T07:59:22.402Z,56.20
2017-09-28T08:01:48.494Z,56.20
2017-09-28T08:04:14.559Z,55.80
2017-09-28T08:06:40.627Z,56.40
2017-09-28T08:09:06.660Z,55.50
2017-09-28T08:11:33.463Z,58.30
2017-09-28T08:13:59.523Z,57.70
2017-09-28T08:16:25.694Z,57.00
2017-09-28T08:18:51.739Z,57.40
2017-09-28T08:21:18.543Z,55.90
2017-09-28T08:23:45.400Z,55.20
2017-09-28T08:26:11.458Z,55.10
2017-09-28T08:28:37.528Z,54.50
2017-09-28T08:31:03.567Z,55.10
2017-09-28T08:33:29.623Z,55.30
2017-09-28T08:35:55.674Z,54.30
2017-09-28T08:38:21.734Z,53.90
2017-09-28T08:40:47.787Z,52.90
2017-09-28T08:43:13.842Z,54.70
2017-09-28T08:45:40.634Z,53.70
2017-09-28T08:48:06.702Z,53.90
2017-09-28T08:50:32.750Z,54.70
2017-09-28T08:52:58.785Z,53.80
2017-09-28T08:55:24.887Z,54.70
2017-09-28T08:57:50.968Z,55.20
2017-09-28T09:00:17.035Z,55.80
2017-09-28T09:02:43.112Z,54.50
2017-09-28T09:05:09.328Z,55.40
2017-09-28T09:07:36.146Z,55.20
2017-09-28T09:10:02.231Z,55.30
2017-09-28T09:12:28.294Z,53.40
2017-09-28T09:14:55.114Z,53.70
2017-09-28T09:17:21.459Z,53.70
2017-09-28T09:19:47.529Z,52.90
2017-09-28T09:22:13.624Z,53.20
2017-09-28T09:24:39.725Z,54.10
2017-09-28T09:27:05.831Z,53.40
2017-09-28T09:29:31.995Z,50.90
2017-09-28T09:31:58.830Z,50.80
2017-09-28T09:34:24.902Z,50.60
2017-09-28T09:36:51.038Z,51.00
2017-09-28T09:39:17.520Z,48.40
2017-09-28T09:41:43.929Z,45.70
2017-09-28T09:44:11.124Z,41.00
2017-09-28T09:46:37.166Z,39.30
2017-09-28T09:49:03.226Z,43.00
2017-09-28T09:51:29.306Z,37.90
2017-09-28T09:53:55.362Z,39.70
2017-09-28T09:56:21.411Z,39.50
2017-09-28T09:58:47.463Z,38.70
2017-09-28T10:01:13.646Z,40.00
2017-09-28T10:03:39.707Z,39.70
2017-09-28T10:06:05.731Z,40.60
2017-09-28T10:08:34.637Z,40.60
2017-09-28T10:11:10.807Z,41.10
2017-09-28T10:13:38.674Z,41.70
2017-09-28T10:16:05.871Z,41.20
2017-09-28T10:18:31.919Z,41.20
2017-09-28T10:20:57.961Z,43.60
2017-09-28T10:23:24.014Z,43.60
2017-09-28T10:25:50.932Z,43.30
2017-09-28T10:28:16.967Z,43.10
2017-09-28T10:30:43.038Z,44.70
2017-09-28T10:33:09.113Z,43.70
2017-09-28T10:35:38.150Z,42.70
2017-09-28T10:38:04.938Z,44.10
2017-09-28T10:40:30.983Z,44.00
2017-09-28T10:42:57.761Z,42.40
2017-09-28T10:45:23.827Z,42.40
2017-09-28T10:47:50.619Z,41.90
2017-09-28T10:50:16.703Z,41.90
2017-09-28T10:52:48.053Z,42.60
2017-09-28T10:55:14.911Z,43.70
2017-09-28T10:57:41.864Z,41.90
2017-09-28T11:00:07.995Z,41.10
2017-09-28T11:02:34.102Z,42.70
2017-09-28T11:05:00.177Z,43.10
2017-09-28T11:07:31.907Z,42.80
2017-09-28T11:09:57.955Z,42.80
2017-09-28T11:12:24.034Z,43.40
2017-09-28T11:14:50.831Z,42.70
2017-09-28T11:17:16.927Z,42.80
2017-09-28T11:19:42.982Z,42.50
2017-09-28T11:22:09.808Z,43.70
2017-09-28T11:24:40.316Z,43.70
2017-09-28T11:27:07.092Z,44.40
2017-09-28T11:29:33.155Z,44.40
2017-09-28T11:31:59.946Z,44.10
2017-09-28T11:34:26.018Z,44.10
2017-09-28T11:36:52.058Z,45.80
2017-09-28T11:39:18.113Z,44.90
2017-09-28T11:41:44.910Z,47.60
2017-09-28T11:44:11.163Z,47.70
2017-09-28T11:46:37.321Z,47.10
2017-09-28T11:49:03.424Z,46.10
2017-09-28T11:51:29.547Z,46.30
2017-09-28T11:53:55.683Z,46.50
2017-09-28T11:56:22.468Z,49.00
2017-09-28T11:58:48.548Z,48.30
2017-09-28T12:01:15.390Z,48.30
2017-09-28T12:03:41.463Z,48.30
2017-09-28T12:06:08.252Z,48.60
2017-09-28T12:08:34.362Z,48.10
2017-09-28T12:11:00.528Z,50.60
2017-09-28T12:13:26.662Z,51.80
2017-09-28T12:15:52.698Z,52.00
2017-09-28T12:18:18.786Z,51.00
2017-09-28T12:20:44.898Z,50.10
2017-09-28T12:23:15.475Z,50.20
2017-09-28T12:25:41.882Z,50.60
2017-09-28T12:28:08.676Z,51.30
2017-09-28T12:30:34.737Z,51.20
2017-09-28T12:33:00.802Z,52.10
2017-09-28T12:35:26.861Z,51.50
2017-09-28T12:37:52.904Z,50.70
2017-09-28T12:40:18.998Z,50.60
2017-09-28T12:42:45.164Z,51.30
2017-09-28T12:45:11.234Z,50.20
2017-09-28T12:47:37.302Z,52.10
2017-09-28T12:50:04.064Z,52.60
2017-09-28T12:52:30.131Z,52.70
2017-09-28T12:54:56.181Z,50.40
2017-09-28T12:57:22.269Z,50.00
2017-09-28T12:59:48.315Z,50.00
2017-09-28T13:02:14.395Z,46.80
2017-09-28T13:04:40.823Z,49.60
2017-09-28T13:07:06.967Z,49.10
2017-09-28T13:09:33.069Z,47.60
2017-09-28T13:11:59.143Z,47.90
2017-09-28T13:14:25.296Z,47.00
2017-09-28T13:16:51.360Z,47.00
2017-09-28T13:19:17.430Z,47.00
2017-09-28T13:21:43.538Z,47.50
2017-09-28T13:24:10.335Z,48.70
2017-09-28T13:26:36.378Z,48.70
2017-09-28T13:29:03.203Z,49.90
2017-09-28T13:31:30.027Z,49.60
2017-09-28T13:33:56.107Z,49.60
2017-09-28T13:36:22.203Z,49.30
2017-09-28T13:38:48.287Z,48.00
2017-09-28T13:41:14.401Z,49.00
2017-09-28T13:43:40.507Z,49.30
2017-09-28T13:46:10.112Z,48.80
2017-09-28T13:48:36.392Z,48.90
2017-09-28T13:51:02.459Z,46.80
2017-09-28T13:53:28.542Z,48.20
2017-09-28T13:55:54.605Z,48.50
2017-09-28T13:58:20.671Z,47.70
2017-09-28T14:00:46.796Z,47.70
2017-09-28T14:03:12.959Z,47.80
2017-09-28T14:05:39.081Z,47.60
2017-09-28T14:08:05.144Z,47.60
2017-09-28T14:10:31.193Z,48.40
2017-09-28T14:12:57.271Z,49.50
2017-09-28T14:15:23.370Z,49.10
2017-09-28T14:17:49.602Z,49.90
2017-09-28T14:20:15.695Z,49.00
2017-09-28T14:22:41.795Z,49.80
2017-09-28T14:25:07.971Z,49.20
2017-09-28T14:27:34.031Z,47.90
2017-09-28T14:30:00.833Z,50.10
2017-09-28T14:32:26.886Z,50.10
2017-09-28T14:34:53.685Z,49.20
2017-09-28T14:37:19.765Z,49.20
2017-09-28T14:39:45.895Z,49.00
2017-09-28T14:42:11.998Z,48.60
2017-09-28T14:44:38.063Z,49.90
2017-09-28T14:47:04.145Z,49.30
2017-09-28T14:49:31.081Z,50.10
2017-09-28T14:51:57.880Z,49.40
2017-09-28T14:54:23.926Z,49.40
2017-09-28T14:56:50.773Z,47.90
2017-09-28T14:59:16.921Z,47.80
2017-09-28T15:01:43.038Z,48.30
2017-09-28T15:04:09.136Z,47.60
2017-09-28T15:06:35.256Z,47.70
2017-09-28T15:09:01.346Z,49.40
2017-09-28T15:11:27.414Z,48.20
2017-09-28T15:13:53.516Z,48.80
2017-09-28T15:16:20.325Z,48.20
2017-09-28T15:18:46.388Z,48.10
2017-09-28T15:21:12.467Z,48.20
2017-09-28T15:23:38.537Z,47.70
2017-09-28T15:26:04.594Z,48.70
2017-09-28T15:28:30.646Z,46.90
2017-09-28T15:30:56.712Z,48.40
2017-09-28T15:33:23.715Z,48.60
2017-09-28T15:35:50.538Z,47.50
2017-09-28T15:38:16.619Z,47.50
2017-09-28T15:40:42.731Z,49.00
2017-09-28T15:43:08.979Z,49.20
2017-09-28T15:45:35.253Z,49.80
2017-09-28T15:48:01.482Z,50.80
2017-09-28T15:50:27.753Z,51.20
2017-09-28T15:52:54.723Z,50.10
2017-09-28T15:55:20.991Z,50.00
2017-09-28T15:57:47.997Z,51.40
2017-09-28T16:00:14.267Z,51.30
2017-09-28T16:02:43.930Z,50.60
2017-09-28T16:05:10.186Z,50.90
2017-09-28T16:07:36.426Z,50.10
2017-09-28T16:10:02.664Z,50.50
2017-09-28T16:12:28.898Z,52.00
2017-09-28T16:14:55.166Z,51.20
2017-09-28T16:17:21.446Z,52.20
2017-09-28T16:19:54.018Z,51.10
2017-09-28T16:22:20.105Z,51.50
2017-09-28T16:24:46.339Z,51.80
2017-09-28T16:27:12.612Z,52.00
2017-09-28T16:29:38.852Z,52.70
2017-09-28T16:32:05.095Z,52.20
2017-09-28T16:34:34.542Z,51.80
2017-09-28T16:37:00.820Z,52.30
2017-09-28T16:39:27.039Z,52.60
2017-09-28T16:41:54.329Z,53.20
2017-09-28T16:44:20.554Z,53.20
2017-09-28T16:46:46.799Z,52.70
2017-09-28T16:49:13.177Z,53.80
2017-09-28T16:51:39.421Z,53.80
2017-09-28T16:54:05.638Z,53.60
2017-09-28T16:56:31.875Z,54.60
2017-09-28T16:58:58.171Z,54.50
2017-09-28T17:01:24.475Z,55.30
2017-09-28T17:03:50.760Z,55.40
2017-09-28T17:06:17.075Z,55.30
2017-09-28T17:08:43.311Z,55.50
2017-09-28T17:11:09.544Z,55.60
2017-09-28T17:13:35.842Z,56.60
2017-09-28T17:16:02.218Z,56.90
2017-09-28T17:18:28.452Z,56.30
2017-09-28T17:20:54.702Z,56.80
2017-09-28T17:23:20.961Z,56.80
2017-09-28T17:25:47.272Z,57.20
2017-09-28T17:28:13.599Z,58.10
2017-09-28T17:30:39.935Z,58.40
2017-09-28T17:33:06.180Z,58.40
2017-09-28T17:35:33.562Z,58.80
2017-09-28T17:37:59.826Z,58.70
2017-09-28T17:40:26.144Z,58.70
2017-09-28T17:42:52.449Z,58.80
2017-09-28T17:45:19.222Z,59.00
2017-09-28T17:47:46.231Z,59.30
2017-09-28T17:50:12.580Z,58.90
2017-09-28T17:52:38.850Z,59.80
2017-09-28T17:55:05.170Z,60.00
2017-09-28T17:57:31.454Z,59.90
2017-09-28T17:59:57.688Z,59.80
2017-09-28T18:02:25.322Z,60.30
2017-09-28T18:04:51.583Z,60.30
2017-09-28T18:07:17.827Z,60.60
2017-09-28T18:09:44.128Z,60.40
2017-09-28T18:12:10.547Z,60.50
2017-09-28T18:14:36.867Z,60.80
2017-09-28T18:17:03.958Z,60.50
2017-09-28T18:19:36.671Z,60.70
2017-09-28T18:22:03.043Z,60.70
2017-09-28T18:24:29.273Z,60.90
2017-09-28T18:26:56.653Z,61.00
2017-09-28T18:29:23.060Z,60.90
2017-09-28T18:31:49.387Z,60.80
2017-09-28T18:34:15.619Z,61.10
2017-09-28T18:36:41.868Z,61.20
2017-09-28T18:39:08.179Z,61.20
2017-09-28T18:41:34.466Z,61.60
2017-09-28T18:44:01.635Z,61.30
2017-09-28T18:46:27.891Z,61.30
2017-09-28T18:48:54.120Z,61.60
2017-09-28T18:51:21.102Z,61.10
2017-09-28T18:53:47.650Z,61.10
2017-09-28T18:56:13.943Z,61.20
2017-09-28T18:58:40.295Z,61.00
2017-09-28T19:01:06.566Z,61.00
2017-09-28T19:03:32.993Z,59.60
2017-09-28T19:05:59.285Z,60.20
2017-09-28T19:08:25.642Z,60.10
2017-09-28T19:10:51.904Z,59.80
2017-09-28T19:13:18.462Z,59.60
2017-09-28T19:15:44.851Z,59.80
2017-09-28T19:18:11.198Z,59.10
2017-09-28T19:20:37.454Z,58.90
2017-09-28T19:23:03.727Z,59.00
2017-09-28T19:25:29.951Z,59.00
2017-09-28T19:27:56.182Z,58.60
2017-09-28T19:30:22.434Z,59.20
2017-09-28T19:32:48.689Z,59.30
2017-09-28T19:35:15.005Z,59.40
2017-09-28T19:37:41.304Z,59.40
2017-09-28T19:40:07.698Z,59.50
2017-09-28T19:42:33.963Z,59.40
2017-09-28T19:45:01.022Z,60.20
2017-09-28T19:47:28.060Z,60.40
2017-09-28T19:49:54.410Z,60.40
2017-09-28T19:52:20.678Z,60.50
2017-09-28T19:54:47.777Z,60.90
2017-09-28T19:57:14.033Z,60.80
2017-09-28T19:59:41.107Z,61.70
2017-09-28T20:02:07.550Z,61.60
2017-09-28T20:04:34.576Z,61.80
2017-09-28T20:07:00.839Z,61.60
2017-09-28T20:09:27.931Z,61.10
2017-09-28T20:11:54.144Z,62.20
2017-09-28T20:14:20.499Z,60.00
2017-09-28T20:16:47.200Z,59.60
2017-09-28T20:19:13.502Z,58.90
2017-09-28T20:21:39.852Z,59.00
2017-09-28T20:24:06.090Z,59.00
2017-09-28T20:26:32.410Z,59.30
2017-09-28T20:28:58.676Z,59.50
2017-09-28T20:31:25.064Z,59.50
2017-09-28T20:33:51.283Z,59.40
2017-09-28T20:36:17.658Z,60.30
2017-09-28T20:38:44.004Z,60.80
2017-09-28T20:41:10.287Z,61.00
2017-09-28T20:43:36.610Z,60.70
2017-09-28T20:46:02.970Z,61.80
2017-09-28T20:48:30.677Z,65.00
2017-09-28T20:50:57.755Z,65.80
2017-09-28T20:53:24.010Z,65.80
2017-09-28T20:55:50.260Z,66.60
2017-09-28T20:58:16.631Z,67.90
2017-09-28T21:00:42.943Z,69.10
2017-09-28T21:03:09.207Z,69.20
2017-09-28T21:05:35.450Z,69.40
2017-09-28T21:08:01.706Z,70.30
2017-09-28T21:10:28.234Z,70.60
2017-09-28T21:12:54.484Z,71.00
2017-09-28T21:15:21.470Z,72.90
2017-09-28T21:17:47.724Z,72.80
2017-09-28T21:20:14.026Z,74.50
2017-09-28T21:22:40.263Z,74.10
2017-09-28T21:25:07.254Z,74.10
2017-09-28T21:27:33.510Z,74.10
2017-09-28T21:30:00.191Z,77.30
2017-09-28T21:32:26.431Z,76.20
2017-09-28T21:34:52.691Z,74.70
2017-09-28T21:37:19.046Z,74.20
2017-09-28T21:39:45.316Z,75.30
2017-09-28T21:42:11.556Z,74.60
2017-09-28T21:44:37.801Z,74.10
2017-09-28T21:47:04.060Z,73.80
2017-09-28T21:49:30.530Z,73.40
2017-09-28T21:51:56.769Z,73.10
2017-09-28T21:54:23.744Z,73.10
2017-09-28T21:56:49.979Z,73.00
2017-09-28T21:59:16.964Z,73.40
2017-09-28T22:01:43.232Z,73.40
2017-09-28T22:04:09.467Z,73.30
2017-09-28T22:06:35.744Z,73.50
2017-09-28T22:09:02.414Z,75.90
2017-09-28T22:11:28.640Z,75.50
2017-09-28T22:13:54.887Z,75.40
2017-09-28T22:16:21.116Z,74.20
2017-09-28T22:18:47.378Z,73.50
2017-09-28T22:21:13.614Z,73.80
2017-09-28T22:23:39.874Z,73.60
2017-09-28T22:26:06.132Z,73.40
2017-09-28T22:28:32.899Z,73.20
2017-09-28T22:31:00.284Z,72.80
2017-09-28T22:33:26.546Z,72.80
2017-09-28T22:35:52.932Z,72.90
2017-09-28T22:38:19.179Z,72.90
2017-09-28T22:40:45.895Z,72.90
2017-09-28T22:43:12.142Z,72.60
2017-09-28T22:45:38.446Z,72.90
2017-09-28T22:48:05.477Z,73.10
2017-09-28T22:50:32.481Z,74.50
2017-09-28T22:52:58.765Z,74.50
2017-09-28T22:55:25.040Z,75.20
2017-09-28T22:57:52.087Z,73.70
2017-09-28T23:00:18.370Z,73.60
2017-09-28T23:02:46.120Z,73.20
2017-09-28T23:05:12.218Z,73.10
2017-09-28T23:07:38.504Z,73.00
2017-09-28T23:10:08.691Z,73.30
2017-09-28T23:12:35.083Z,73.20
2017-09-28T23:15:02.087Z,73.30
2017-09-28T23:17:29.135Z,73.10
2017-09-28T23:19:55.266Z,73.10
2017-09-28T23:22:21.344Z,73.20
2017-09-28T23:24:48.170Z,73.50
2017-09-28T23:27:14.320Z,73.50
2017-09-28T23:29:40.376Z,73.50
2017-09-28T23:32:06.645Z,73.70
2017-09-28T23:34:33.030Z,73.70
2017-09-28T23:36:59.395Z,73.70
2017-09-28T23:39:25.619Z,73.20
2017-09-28T23:41:51.865Z,73.70
2017-09-28T23:44:18.135Z,73.20
2017-09-28T23:46:44.402Z,73.00
2017-09-28T23:49:11.399Z,72.30
2017-09-28T23:51:37.650Z,72.30
2017-09-28T23:54:03.903Z,72.30
2017-09-28T23:56:30.154Z,72.20
2017-09-28T23:58:56.429Z,72.50
